Detall de PIREP

Printer-friendly versionPDF version

[2013/02/03 15:21:00]
Flight IATA:CT0001
Pilot Number:012
Company ICAO:CAT
Aircraft Type:F70/A
PAX:79
Aircraft Registration:PFJ
Departing Airport: LERS
Destination Airport: LEPA
Alternate Airport:LEBL
Online: VATSIM
Route:GARBI B31 TOLSO
Flight Level:F170
No Slew and time accel
No pause
Crash detect
Detect pilot in Cockpit between each 30 and 45 minutes
15:21 Zero fuel Weight: 69874 Lbs, Fuel Weight: 8156 Lbs
15:21 VATSIM:LERS 031500Z 27014KT 230V320 CAVOK 13/M06 Q1021
15:21 VATSIM:LEPA 031500Z 34012KT 310V010 9999 FEW026 SCT060 12/M01 Q1021 NOSIG
15:21 VOICE CATALONIAN
15:22 Parking Brakes off
15:27 Take-off
15:27 Take off Weight: 77738 Lbs
15:27 Wind: 286º @ 024 Knots Heading: 253º
15:27 POS N41º 08´ 50´´ E001º 09´ 59´´
15:27 Gear Up: 151 Knots
15:27 Flaps:2 at 151 Knots
15:27 Flaps:1 at 185 Knots
15:28 Flaps:0 at 206 Knots
15:33 TOC
15:33 Fuel Weight: 6935Lb
15:42 Wind:010º@082 Knots Heading: 188º Ground Speed: 487 Knots Altitude 17171 ft
15:45 TOD
15:45 Fuel Weight: 5729 Lb
15:55 Flaps:1 at 206 Knots
15:56 Gear Down: 184 Knots
15:56 Flaps:2 at 178 Knots
15:56 Flaps:3 at 156 Knots
15:57 Wind:348º@011 Knots Heading: 048º Ground Speed: 150 Knots Altitude 1751 ft
15:57 Flaps:4 at 132 Knots
15:59 TouchDown:Rate -264 ft/min Speed: 112 Knots
15:59 VATSIM:LEPA 031530Z 34010KT 9999 FEW026 SCT060 11/M01 Q1022 NOSIG
15:59 Land
15:59 Wind:341º@011 Knots
15:59 Heading: 065º
15:59 Flight Duration: 00:32
15:59 Landing Weight: 75093 Lbs
15:59 POS N39º 33´ 12´´ E002º 43´ 26´´
16:02 Parking brakes on
16:02 Block to Block Duration: 00:40
16:02 Final Fuel: 5125 Lbls
16:02 Spent Fuel: 3031 Lbls
16:02 Flight Length: 180 NM
16:02 TOD Land Length: 62 NM

Exportar CSV

Powered by Drupal - Modified by Danger4k